sensor_id;sensor_type;location;lat;lon;timestamp;P1;durP1;ratioP1;P2;durP2;ratioP2
69244;SDS011;56357;52.304;4.870;2023-02-08T00:00:26;7.38;;;3.10;;
69244;SDS011;56357;52.304;4.870;2023-02-08T00:02:53;8.10;;;2.95;;
69244;SDS011;56357;52.304;4.870;2023-02-08T00:05:19;7.03;;;2.83;;
69244;SDS011;56357;52.304;4.870;2023-02-08T00:07:45;8.90;;;3.00;;
69244;SDS011;56357;52.304;4.870;2023-02-08T00:10:12;6.67;;;2.93;;
69244;SDS011;56357;52.304;4.870;2023-02-08T00:12:38;7.95;;;3.35;;
69244;SDS011;56357;52.304;4.870;2023-02-08T00:15:05;8.18;;;2.80;;
69244;SDS011;56357;52.304;4.870;2023-02-08T00:17:31;7.30;;;2.90;;
69244;SDS011;56357;52.304;4.870;2023-02-08T00:19:58;6.47;;;2.75;;
69244;SDS011;56357;52.304;4.870;2023-02-08T00:22:24;9.30;;;3.47;;
69244;SDS011;56357;52.304;4.870;2023-02-08T00:24:51;6.57;;;2.75;;
69244;SDS011;56357;52.304;4.870;2023-02-08T00:27:17;7.65;;;3.00;;
69244;SDS011;56357;52.304;4.870;2023-02-08T00:29:44;8.30;;;3.35;;
69244;SDS011;56357;52.304;4.870;2023-02-08T00:32:10;7.03;;;3.08;;
69244;SDS011;56357;52.304;4.870;2023-02-08T00:34:36;7.03;;;3.13;;
69244;SDS011;56357;52.304;4.870;2023-02-08T00:37:03;7.55;;;3.08;;
69244;SDS011;56357;52.304;4.870;2023-02-08T00:39:30;8.25;;;2.90;;
69244;SDS011;56357;52.304;4.870;2023-02-08T00:41:57;7.10;;;2.70;;
69244;SDS011;56357;52.304;4.870;2023-02-08T00:44:23;8.27;;;3.05;;
69244;SDS011;56357;52.304;4.870;2023-02-08T00:46:50;7.17;;;2.70;;
69244;SDS011;56357;52.304;4.870;2023-02-08T00:49:17;8.07;;;3.15;;
69244;SDS011;56357;52.304;4.870;2023-02-08T00:51:44;6.45;;;2.90;;
69244;SDS011;56357;52.304;4.870;2023-02-08T00:54:14;6.47;;;2.70;;
69244;SDS011;56357;52.304;4.870;2023-02-08T00:56:42;8.95;;;3.38;;
69244;SDS011;56357;52.304;4.870;2023-02-08T00:59:09;7.47;;;3.07;;
69244;SDS011;56357;52.304;4.870;2023-02-08T01:01:36;6.90;;;3.05;;
69244;SDS011;56357;52.304;4.870;2023-02-08T01:04:03;5.63;;;2.47;;
69244;SDS011;56357;52.304;4.870;2023-02-08T01:06:30;6.88;;;2.92;;
69244;SDS011;56357;52.304;4.870;2023-02-08T01:08:56;6.60;;;2.78;;
69244;SDS011;56357;52.304;4.870;2023-02-08T01:11:23;9.70;;;3.43;;
69244;SDS011;56357;52.304;4.870;2023-02-08T01:13:51;6.70;;;3.40;;
69244;SDS011;56357;52.304;4.870;2023-02-08T01:16:24;7.50;;;2.95;;
69244;SDS011;56357;52.304;4.870;2023-02-08T01:18:55;7.35;;;3.30;;
69244;SDS011;56357;52.304;4.870;2023-02-08T01:21:24;7.22;;;2.90;;
69244;SDS011;56357;52.304;4.870;2023-02-08T01:23:53;7.90;;;3.23;;
69244;SDS011;56357;52.304;4.870;2023-02-08T01:26:20;7.18;;;3.08;;
69244;SDS011;56357;52.304;4.870;2023-02-08T01:28:47;7.57;;;2.85;;
69244;SDS011;56357;52.304;4.870;2023-02-08T01:31:16;6.70;;;2.83;;
69244;SDS011;56357;52.304;4.870;2023-02-08T01:33:48;7.43;;;3.10;;
69244;SDS011;56357;52.304;4.870;2023-02-08T01:36:15;6.13;;;2.70;;
69244;SDS011;56357;52.304;4.870;2023-02-08T01:38:42;7.35;;;2.83;;
69244;SDS011;56357;52.304;4.870;2023-02-08T01:41:14;6.68;;;2.67;;
69244;SDS011;56357;52.304;4.870;2023-02-08T01:46:34;7.90;;;3.00;;
69244;SDS011;56357;52.304;4.870;2023-02-08T01:49:07;6.33;;;2.87;;
69244;SDS011;56357;52.304;4.870;2023-02-08T01:51:45;6.65;;;3.13;;
69244;SDS011;56357;52.304;4.870;2023-02-08T01:54:15;7.32;;;2.97;;
69244;SDS011;56357;52.304;4.870;2023-02-08T01:56:45;7.85;;;2.88;;
69244;SDS011;56357;52.304;4.870;2023-02-08T01:59:16;6.60;;;2.90;;
69244;SDS011;56357;52.304;4.870;2023-02-08T02:01:50;7.10;;;2.97;;
69244;SDS011;56357;52.304;4.870;2023-02-08T02:04:19;9.23;;;3.33;;
69244;SDS011;56357;52.304;4.870;2023-02-08T02:06:48;7.22;;;2.97;;
69244;SDS011;56357;52.304;4.870;2023-02-08T02:09:19;7.43;;;3.20;;
69244;SDS011;56357;52.304;4.870;2023-02-08T02:11:52;6.72;;;2.75;;
69244;SDS011;56357;52.304;4.870;2023-02-08T02:14:19;8.33;;;3.27;;
69244;SDS011;56357;52.304;4.870;2023-02-08T02:16:46;7.35;;;2.88;;
69244;SDS011;56357;52.304;4.870;2023-02-08T02:19:20;8.13;;;3.13;;
69244;SDS011;56357;52.304;4.870;2023-02-08T02:33:47;6.93;;;3.30;;
69244;SDS011;56357;52.304;4.870;2023-02-08T02:36:44;7.68;;;3.45;;
69244;SDS011;56357;52.304;4.870;2023-02-08T02:41:55;7.60;;;3.23;;
69244;SDS011;56357;52.304;4.870;2023-02-08T02:45:09;8.32;;;2.97;;
69244;SDS011;56357;52.304;4.870;2023-02-08T02:47:57;7.40;;;2.95;;
69244;SDS011;56357;52.304;4.870;2023-02-08T02:53:20;7.10;;;2.80;;
69244;SDS011;56357;52.304;4.870;2023-02-08T02:56:11;6.83;;;2.80;;
69244;SDS011;56357;52.304;4.870;2023-02-08T02:58:42;7.72;;;3.17;;
69244;SDS011;56357;52.304;4.870;2023-02-08T03:01:10;6.43;;;2.95;;
69244;SDS011;56357;52.304;4.870;2023-02-08T03:03:36;7.05;;;3.30;;
69244;SDS011;56357;52.304;4.870;2023-02-08T03:06:05;8.30;;;2.90;;
69244;SDS011;56357;52.304;4.870;2023-02-08T03:11:29;6.22;;;2.90;;
69244;SDS011;56357;52.304;4.870;2023-02-08T03:14:12;6.45;;;3.05;;
69244;SDS011;56357;52.304;4.870;2023-02-08T03:16:52;6.78;;;2.78;;
69244;SDS011;56357;52.304;4.870;2023-02-08T03:19:44;7.18;;;3.17;;
69244;SDS011;56357;52.304;4.870;2023-02-08T03:22:27;8.00;;;3.10;;
69244;SDS011;56357;52.304;4.870;2023-02-08T03:25:07;6.38;;;2.78;;
69244;SDS011;56357;52.304;4.870;2023-02-08T03:27:48;7.90;;;3.08;;
69244;SDS011;56357;52.304;4.870;2023-02-08T03:38:30;7.28;;;3.03;;
69244;SDS011;56357;52.304;4.870;2023-02-08T03:41:00;6.43;;;3.00;;
69244;SDS011;56357;52.304;4.870;2023-02-08T03:43:31;7.80;;;3.15;;
69244;SDS011;56357;52.304;4.870;2023-02-08T03:48:41;7.13;;;3.20;;
69244;SDS011;56357;52.304;4.870;2023-02-08T03:51:13;9.52;;;5.50;;
69244;SDS011;56357;52.304;4.870;2023-02-08T03:53:40;9.13;;;3.10;;
69244;SDS011;56357;52.304;4.870;2023-02-08T03:56:10;7.05;;;3.08;;
69244;SDS011;56357;52.304;4.870;2023-02-08T03:58:47;6.50;;;2.63;;
69244;SDS011;56357;52.304;4.870;2023-02-08T04:01:22;7.20;;;2.80;;
69244;SDS011;56357;52.304;4.870;2023-02-08T04:03:54;7.80;;;3.30;;
69244;SDS011;56357;52.304;4.870;2023-02-08T04:06:22;6.72;;;2.60;;
69244;SDS011;56357;52.304;4.870;2023-02-08T04:08:49;7.50;;;3.08;;
69244;SDS011;56357;52.304;4.870;2023-02-08T04:11:15;6.07;;;2.65;;
69244;SDS011;56357;52.304;4.870;2023-02-08T04:13:42;6.33;;;2.90;;
69244;SDS011;56357;52.304;4.870;2023-02-08T04:16:10;6.93;;;2.92;;
69244;SDS011;56357;52.304;4.870;2023-02-08T04:18:38;5.57;;;2.53;;
69244;SDS011;56357;52.304;4.870;2023-02-08T04:21:04;8.30;;;2.83;;
69244;SDS011;56357;52.304;4.870;2023-02-08T04:23:31;6.72;;;2.80;;
69244;SDS011;56357;52.304;4.870;2023-02-08T04:25:57;7.17;;;2.77;;
69244;SDS011;56357;52.304;4.870;2023-02-08T04:28:24;7.32;;;2.80;;
69244;SDS011;56357;52.304;4.870;2023-02-08T04:30:50;5.95;;;2.40;;
69244;SDS011;56357;52.304;4.870;2023-02-08T04:33:20;7.25;;;3.50;;
69244;SDS011;56357;52.304;4.870;2023-02-08T04:35:47;6.45;;;2.83;;
69244;SDS011;56357;52.304;4.870;2023-02-08T04:38:13;7.17;;;3.27;;
69244;SDS011;56357;52.304;4.870;2023-02-08T04:40:39;6.20;;;2.50;;
69244;SDS011;56357;52.304;4.870;2023-02-08T04:43:06;6.93;;;2.85;;
69244;SDS011;56357;52.304;4.870;2023-02-08T04:45:32;6.70;;;2.88;;
69244;SDS011;56357;52.304;4.870;2023-02-08T04:48:02;6.28;;;2.63;;
69244;SDS011;56357;52.304;4.870;2023-02-08T04:50:28;7.17;;;2.97;;
69244;SDS011;56357;52.304;4.870;2023-02-08T04:52:55;7.25;;;2.88;;
69244;SDS011;56357;52.304;4.870;2023-02-08T04:55:22;7.55;;;2.50;;
69244;SDS011;56357;52.304;4.870;2023-02-08T04:57:48;6.65;;;2.60;;
69244;SDS011;56357;52.304;4.870;2023-02-08T05:00:14;8.05;;;2.90;;
69244;SDS011;56357;52.304;4.870;2023-02-08T05:02:41;5.43;;;2.30;;
69244;SDS011;56357;52.304;4.870;2023-02-08T05:05:08;5.03;;;2.15;;
69244;SDS011;56357;52.304;4.870;2023-02-08T05:07:34;6.97;;;2.50;;
69244;SDS011;56357;52.304;4.870;2023-02-08T05:10:01;7.72;;;2.88;;
69244;SDS011;56357;52.304;4.870;2023-02-08T05:12:28;6.13;;;2.72;;
69244;SDS011;56357;52.304;4.870;2023-02-08T05:14:55;6.70;;;3.07;;
69244;SDS011;56357;52.304;4.870;2023-02-08T05:17:21;6.28;;;2.63;;
69244;SDS011;56357;52.304;4.870;2023-02-08T05:19:48;6.57;;;2.80;;
69244;SDS011;56357;52.304;4.870;2023-02-08T05:22:14;6.95;;;2.92;;
69244;SDS011;56357;52.304;4.870;2023-02-08T05:24:41;7.85;;;3.28;;
69244;SDS011;56357;52.304;4.870;2023-02-08T05:27:07;7.57;;;3.17;;
69244;SDS011;56357;52.304;4.870;2023-02-08T05:29:34;7.25;;;3.08;;
69244;SDS011;56357;52.304;4.870;2023-02-08T05:32:00;6.65;;;3.00;;
69244;SDS011;56357;52.304;4.870;2023-02-08T05:34:27;6.72;;;3.10;;
69244;SDS011;56357;52.304;4.870;2023-02-08T05:36:53;6.80;;;3.13;;
69244;SDS011;56357;52.304;4.870;2023-02-08T05:39:20;6.47;;;3.10;;
69244;SDS011;56357;52.304;4.870;2023-02-08T05:41:46;7.38;;;3.40;;
69244;SDS011;56357;52.304;4.870;2023-02-08T05:44:13;7.00;;;2.80;;
69244;SDS011;56357;52.304;4.870;2023-02-08T05:46:39;6.75;;;2.72;;
69244;SDS011;56357;52.304;4.870;2023-02-08T05:49:05;9.68;;;2.78;;
69244;SDS011;56357;52.304;4.870;2023-02-08T05:51:32;6.90;;;2.97;;
69244;SDS011;56357;52.304;4.870;2023-02-08T05:53:58;6.82;;;2.97;;
69244;SDS011;56357;52.304;4.870;2023-02-08T05:56:25;6.68;;;2.95;;
69244;SDS011;56357;52.304;4.870;2023-02-08T05:58:51;6.75;;;2.80;;
69244;SDS011;56357;52.304;4.870;2023-02-08T06:01:18;6.97;;;3.00;;
69244;SDS011;56357;52.304;4.870;2023-02-08T06:03:45;6.57;;;3.10;;
69244;SDS011;56357;52.304;4.870;2023-02-08T06:06:11;8.10;;;3.58;;
69244;SDS011;56357;52.304;4.870;2023-02-08T06:08:38;6.93;;;3.17;;
69244;SDS011;56357;52.304;4.870;2023-02-08T06:11:05;6.57;;;3.05;;
69244;SDS011;56357;52.304;4.870;2023-02-08T06:13:31;7.00;;;2.80;;
69244;SDS011;56357;52.304;4.870;2023-02-08T06:15:58;7.00;;;3.03;;
69244;SDS011;56357;52.304;4.870;2023-02-08T06:18:24;6.65;;;3.13;;
69244;SDS011;56357;52.304;4.870;2023-02-08T06:20:52;7.10;;;2.95;;
69244;SDS011;56357;52.304;4.870;2023-02-08T06:23:19;6.85;;;3.17;;
69244;SDS011;56357;52.304;4.870;2023-02-08T06:25:46;6.65;;;3.03;;
69244;SDS011;56357;52.304;4.870;2023-02-08T06:28:13;6.70;;;2.83;;
69244;SDS011;56357;52.304;4.870;2023-02-08T06:30:39;7.95;;;2.60;;
69244;SDS011;56357;52.304;4.870;2023-02-08T06:33:06;7.43;;;3.20;;
69244;SDS011;56357;52.304;4.870;2023-02-08T06:35:32;6.32;;;2.83;;
69244;SDS011;56357;52.304;4.870;2023-02-08T06:37:59;8.65;;;2.78;;
69244;SDS011;56357;52.304;4.870;2023-02-08T06:40:25;7.70;;;2.67;;
69244;SDS011;56357;52.304;4.870;2023-02-08T06:42:52;6.20;;;2.72;;
69244;SDS011;56357;52.304;4.870;2023-02-08T06:45:18;7.40;;;2.80;;
69244;SDS011;56357;52.304;4.870;2023-02-08T06:47:45;6.75;;;2.88;;
69244;SDS011;56357;52.304;4.870;2023-02-08T06:50:11;7.30;;;2.88;;
69244;SDS011;56357;52.304;4.870;2023-02-08T06:52:39;8.60;;;3.03;;
69244;SDS011;56357;52.304;4.870;2023-02-08T06:55:05;8.77;;;2.50;;
69244;SDS011;56357;52.304;4.870;2023-02-08T06:57:32;8.82;;;2.75;;
69244;SDS011;56357;52.304;4.870;2023-02-08T06:59:58;7.82;;;3.22;;
69244;SDS011;56357;52.304;4.870;2023-02-08T07:02:25;7.65;;;3.15;;
69244;SDS011;56357;52.304;4.870;2023-02-08T07:04:51;9.73;;;3.10;;
69244;SDS011;56357;52.304;4.870;2023-02-08T07:07:18;8.43;;;2.83;;
69244;SDS011;56357;52.304;4.870;2023-02-08T07:09:44;10.75;;;2.80;;
69244;SDS011;56357;52.304;4.870;2023-02-08T07:12:11;7.53;;;3.13;;
69244;SDS011;56357;52.304;4.870;2023-02-08T07:14:38;12.80;;;3.38;;
69244;SDS011;56357;52.304;4.870;2023-02-08T07:17:06;7.80;;;3.40;;
69244;SDS011;56357;52.304;4.870;2023-02-08T07:19:33;11.25;;;3.85;;
69244;SDS011;56357;52.304;4.870;2023-02-08T07:22:00;9.35;;;3.40;;
69244;SDS011;56357;52.304;4.870;2023-02-08T07:24:32;10.00;;;4.30;;
69244;SDS011;56357;52.304;4.870;2023-02-08T07:27:01;10.13;;;3.95;;
69244;SDS011;56357;52.304;4.870;2023-02-08T07:29:29;9.03;;;3.53;;
69244;SDS011;56357;52.304;4.870;2023-02-08T07:31:59;9.05;;;3.70;;
69244;SDS011;56357;52.304;4.870;2023-02-08T07:34:31;8.90;;;4.22;;
69244;SDS011;56357;52.304;4.870;2023-02-08T07:37:00;9.63;;;3.70;;
69244;SDS011;56357;52.304;4.870;2023-02-08T07:39:27;7.50;;;3.20;;
69244;SDS011;56357;52.304;4.870;2023-02-08T07:41:55;10.57;;;3.90;;
69244;SDS011;56357;52.304;4.870;2023-02-08T07:44:22;11.65;;;3.92;;
69244;SDS011;56357;52.304;4.870;2023-02-08T07:46:48;8.73;;;3.40;;
69244;SDS011;56357;52.304;4.870;2023-02-08T07:49:14;9.95;;;3.53;;
69244;SDS011;56357;52.304;4.870;2023-02-08T07:51:41;10.73;;;4.25;;
69244;SDS011;56357;52.304;4.870;2023-02-08T07:54:07;10.97;;;3.80;;
69244;SDS011;56357;52.304;4.870;2023-02-08T07:56:34;11.00;;;3.72;;
69244;SDS011;56357;52.304;4.870;2023-02-08T07:59:00;8.77;;;3.53;;
69244;SDS011;56357;52.304;4.870;2023-02-08T08:01:27;8.63;;;3.88;;
69244;SDS011;56357;52.304;4.870;2023-02-08T08:03:53;8.88;;;3.90;;
69244;SDS011;56357;52.304;4.870;2023-02-08T08:06:21;8.87;;;3.70;;
69244;SDS011;56357;52.304;4.870;2023-02-08T08:08:48;10.48;;;3.95;;
69244;SDS011;56357;52.304;4.870;2023-02-08T08:11:16;8.52;;;3.80;;
69244;SDS011;56357;52.304;4.870;2023-02-08T08:13:43;8.90;;;3.63;;
69244;SDS011;56357;52.304;4.870;2023-02-08T08:16:10;11.90;;;4.00;;
69244;SDS011;56357;52.304;4.870;2023-02-08T08:18:38;7.93;;;3.60;;
69244;SDS011;56357;52.304;4.870;2023-02-08T08:21:04;10.52;;;3.78;;
69244;SDS011;56357;52.304;4.870;2023-02-08T08:23:31;9.48;;;4.13;;
69244;SDS011;56357;52.304;4.870;2023-02-08T08:25:58;9.85;;;4.00;;
69244;SDS011;56357;52.304;4.870;2023-02-08T08:28:25;9.07;;;4.00;;
69244;SDS011;56357;52.304;4.870;2023-02-08T08:30:52;9.80;;;3.57;;
69244;SDS011;56357;52.304;4.870;2023-02-08T08:33:19;12.05;;;4.07;;
69244;SDS011;56357;52.304;4.870;2023-02-08T08:35:45;12.13;;;4.47;;
69244;SDS011;56357;52.304;4.870;2023-02-08T08:38:11;9.40;;;4.40;;
69244;SDS011;56357;52.304;4.870;2023-02-08T08:40:38;12.40;;;4.10;;
69244;SDS011;56357;52.304;4.870;2023-02-08T08:43:04;10.70;;;4.13;;
69244;SDS011;56357;52.304;4.870;2023-02-08T08:45:31;8.10;;;4.03;;
69244;SDS011;56357;52.304;4.870;2023-02-08T08:48:00;12.35;;;4.32;;
69244;SDS011;56357;52.304;4.870;2023-02-08T08:50:29;9.52;;;4.18;;
69244;SDS011;56357;52.304;4.870;2023-02-08T08:52:55;10.65;;;4.20;;
69244;SDS011;56357;52.304;4.870;2023-02-08T08:55:22;8.67;;;4.03;;
69244;SDS011;56357;52.304;4.870;2023-02-08T08:57:48;9.98;;;3.33;;
69244;SDS011;56357;52.304;4.870;2023-02-08T09:00:17;8.20;;;3.92;;
69244;SDS011;56357;52.304;4.870;2023-02-08T09:02:44;11.35;;;3.90;;
69244;SDS011;56357;52.304;4.870;2023-02-08T09:05:11;9.18;;;3.63;;
69244;SDS011;56357;52.304;4.870;2023-02-08T09:07:40;8.77;;;3.70;;
69244;SDS011;56357;52.304;4.870;2023-02-08T09:10:07;7.32;;;3.10;;
69244;SDS011;56357;52.304;4.870;2023-02-08T09:12:33;9.50;;;4.00;;
69244;SDS011;56357;52.304;4.870;2023-02-08T09:15:00;9.10;;;3.83;;
69244;SDS011;56357;52.304;4.870;2023-02-08T09:17:27;9.75;;;3.70;;
69244;SDS011;56357;52.304;4.870;2023-02-08T09:19:53;9.67;;;3.40;;
69244;SDS011;56357;52.304;4.870;2023-02-08T09:22:20;8.75;;;3.42;;
69244;SDS011;56357;52.304;4.870;2023-02-08T09:24:46;9.68;;;3.88;;
69244;SDS011;56357;52.304;4.870;2023-02-08T09:27:16;7.72;;;3.63;;
69244;SDS011;56357;52.304;4.870;2023-02-08T09:29:43;7.65;;;3.22;;
69244;SDS011;56357;52.304;4.870;2023-02-08T09:32:09;8.23;;;3.57;;
69244;SDS011;56357;52.304;4.870;2023-02-08T09:34:36;8.48;;;3.40;;
69244;SDS011;56357;52.304;4.870;2023-02-08T09:37:02;7.35;;;3.25;;
69244;SDS011;56357;52.304;4.870;2023-02-08T09:39:30;8.30;;;3.17;;
69244;SDS011;56357;52.304;4.870;2023-02-08T09:45:01;8.77;;;3.30;;
69244;SDS011;56357;52.304;4.870;2023-02-08T09:50:36;9.27;;;3.50;;
69244;SDS011;56357;52.304;4.870;2023-02-08T09:53:21;8.07;;;3.15;;
69244;SDS011;56357;52.304;4.870;2023-02-08T09:55:56;9.25;;;3.45;;
69244;SDS011;56357;52.304;4.870;2023-02-08T09:58:26;10.17;;;3.60;;
69244;SDS011;56357;52.304;4.870;2023-02-08T10:00:58;9.45;;;3.20;;
69244;SDS011;56357;52.304;4.870;2023-02-08T10:03:31;8.88;;;3.40;;
69244;SDS011;56357;52.304;4.870;2023-02-08T10:06:13;8.63;;;3.78;;
69244;SDS011;56357;52.304;4.870;2023-02-08T10:08:41;7.78;;;3.45;;
69244;SDS011;56357;52.304;4.870;2023-02-08T10:13:57;7.40;;;3.22;;
69244;SDS011;56357;52.304;4.870;2023-02-08T10:25:45;7.07;;;3.17;;
69244;SDS011;56357;52.304;4.870;2023-02-08T10:34:24;7.68;;;3.00;;
69244;SDS011;56357;52.304;4.870;2023-02-08T10:37:12;6.63;;;2.97;;
69244;SDS011;56357;52.304;4.870;2023-02-08T10:39:43;7.33;;;3.23;;
69244;SDS011;56357;52.304;4.870;2023-02-08T10:42:12;7.15;;;2.97;;
69244;SDS011;56357;52.304;4.870;2023-02-08T10:47:47;8.02;;;3.10;;
69244;SDS011;56357;52.304;4.870;2023-02-08T10:50:19;6.80;;;2.78;;
69244;SDS011;56357;52.304;4.870;2023-02-08T10:53:14;6.70;;;2.63;;
69244;SDS011;56357;52.304;4.870;2023-02-08T10:55:44;7.35;;;2.63;;
69244;SDS011;56357;52.304;4.870;2023-02-08T10:58:20;6.60;;;3.20;;
69244;SDS011;56357;52.304;4.870;2023-02-08T11:00:49;7.70;;;3.25;;
69244;SDS011;56357;52.304;4.870;2023-02-08T11:03:34;7.47;;;3.45;;
69244;SDS011;56357;52.304;4.870;2023-02-08T11:06:03;8.13;;;3.10;;
69244;SDS011;56357;52.304;4.870;2023-02-08T11:08:30;6.75;;;3.00;;
69244;SDS011;56357;52.304;4.870;2023-02-08T11:11:06;8.13;;;3.03;;
69244;SDS011;56357;52.304;4.870;2023-02-08T11:13:39;7.97;;;2.90;;
69244;SDS011;56357;52.304;4.870;2023-02-08T11:16:10;8.30;;;3.03;;
69244;SDS011;56357;52.304;4.870;2023-02-08T11:18:51;6.03;;;2.40;;
69244;SDS011;56357;52.304;4.870;2023-02-08T11:21:36;7.10;;;2.88;;
69244;SDS011;56357;52.304;4.870;2023-02-08T11:26:41;6.03;;;2.65;;
69244;SDS011;56357;52.304;4.870;2023-02-08T11:34:24;7.07;;;3.00;;
69244;SDS011;56357;52.304;4.870;2023-02-08T11:36:52;6.53;;;3.13;;
69244;SDS011;56357;52.304;4.870;2023-02-08T11:39:26;6.35;;;2.70;;
69244;SDS011;56357;52.304;4.870;2023-02-08T11:41:59;7.00;;;3.08;;
69244;SDS011;56357;52.304;4.870;2023-02-08T11:44:32;8.47;;;2.70;;
69244;SDS011;56357;52.304;4.870;2023-02-08T11:47:01;7.93;;;2.70;;
69244;SDS011;56357;52.304;4.870;2023-02-08T11:49:35;7.57;;;3.42;;
69244;SDS011;56357;52.304;4.870;2023-02-08T11:52:20;7.30;;;2.90;;
69244;SDS011;56357;52.304;4.870;2023-02-08T11:54:49;8.43;;;3.22;;
69244;SDS011;56357;52.304;4.870;2023-02-08T11:57:18;7.20;;;2.57;;
69244;SDS011;56357;52.304;4.870;2023-02-08T11:59:47;7.10;;;3.05;;
69244;SDS011;56357;52.304;4.870;2023-02-08T12:02:29;10.15;;;2.90;;
69244;SDS011;56357;52.304;4.870;2023-02-08T12:05:00;12.73;;;3.45;;
69244;SDS011;56357;52.304;4.870;2023-02-08T12:21:17;8.52;;;2.80;;
69244;SDS011;56357;52.304;4.870;2023-02-08T12:26:41;8.38;;;2.47;;
69244;SDS011;56357;52.304;4.870;2023-02-08T12:34:53;10.95;;;2.83;;
69244;SDS011;56357;52.304;4.870;2023-02-08T12:45:55;11.70;;;3.00;;
69244;SDS011;56357;52.304;4.870;2023-02-08T12:48:28;8.57;;;2.60;;
69244;SDS011;56357;52.304;4.870;2023-02-08T12:53:42;8.25;;;3.33;;
69244;SDS011;56357;52.304;4.870;2023-02-08T12:56:17;8.55;;;2.97;;
69244;SDS011;56357;52.304;4.870;2023-02-08T12:58:49;7.25;;;2.58;;
69244;SDS011;56357;52.304;4.870;2023-02-08T13:01:56;9.93;;;2.75;;
69244;SDS011;56357;52.304;4.870;2023-02-08T13:04:18;10.37;;;2.77;;
69244;SDS011;56357;52.304;4.870;2023-02-08T13:06:50;7.55;;;2.58;;
69244;SDS011;56357;52.304;4.870;2023-02-08T13:14:27;8.27;;;2.67;;
69244;SDS011;56357;52.304;4.870;2023-02-08T13:16:59;9.60;;;2.77;;
69244;SDS011;56357;52.304;4.870;2023-02-08T13:19:35;8.68;;;2.80;;
69244;SDS011;56357;52.304;4.870;2023-02-08T13:22:09;8.73;;;2.75;;
69244;SDS011;56357;52.304;4.870;2023-02-08T13:24:41;6.82;;;2.60;;
69244;SDS011;56357;52.304;4.870;2023-02-08T13:27:13;9.88;;;2.80;;
69244;SDS011;56357;52.304;4.870;2023-02-08T13:29:45;8.77;;;2.40;;
69244;SDS011;56357;52.304;4.870;2023-02-08T13:32:24;9.70;;;2.40;;
69244;SDS011;56357;52.304;4.870;2023-02-08T13:35:00;7.43;;;2.42;;
69244;SDS011;56357;52.304;4.870;2023-02-08T13:37:32;9.13;;;2.42;;
69244;SDS011;56357;52.304;4.870;2023-02-08T13:42:32;8.37;;;3.20;;
69244;SDS011;56357;52.304;4.870;2023-02-08T13:45:03;10.30;;;2.30;;
69244;SDS011;56357;52.304;4.870;2023-02-08T13:47:35;7.20;;;2.58;;
69244;SDS011;56357;52.304;4.870;2023-02-08T13:53:04;8.38;;;2.67;;
69244;SDS011;56357;52.304;4.870;2023-02-08T14:00:27;10.10;;;2.97;;
69244;SDS011;56357;52.304;4.870;2023-02-08T14:02:59;8.95;;;2.78;;
69244;SDS011;56357;52.304;4.870;2023-02-08T14:08:17;8.13;;;2.90;;
69244;SDS011;56357;52.304;4.870;2023-02-08T14:13:46;10.57;;;2.88;;
69244;SDS011;56357;52.304;4.870;2023-02-08T14:16:32;8.38;;;2.80;;
69244;SDS011;56357;52.304;4.870;2023-02-08T14:19:25;7.03;;;2.33;;
69244;SDS011;56357;52.304;4.870;2023-02-08T14:22:33;7.67;;;3.03;;
69244;SDS011;56357;52.304;4.870;2023-02-08T14:24:47;9.13;;;3.17;;
69244;SDS011;56357;52.304;4.870;2023-02-08T14:27:35;7.53;;;3.08;;
69244;SDS011;56357;52.304;4.870;2023-02-08T14:32:43;7.10;;;3.00;;
69244;SDS011;56357;52.304;4.870;2023-02-08T14:37:38;7.55;;;3.00;;
69244;SDS011;56357;52.304;4.870;2023-02-08T14:50:51;8.40;;;3.28;;
69244;SDS011;56357;52.304;4.870;2023-02-08T14:53:22;7.05;;;2.97;;
69244;SDS011;56357;52.304;4.870;2023-02-08T14:55:55;6.38;;;3.00;;
69244;SDS011;56357;52.304;4.870;2023-02-08T14:58:27;9.63;;;3.20;;
69244;SDS011;56357;52.304;4.870;2023-02-08T15:00:56;7.13;;;3.13;;
69244;SDS011;56357;52.304;4.870;2023-02-08T15:03:27;6.70;;;2.67;;
69244;SDS011;56357;52.304;4.870;2023-02-08T15:06:01;6.93;;;3.10;;
69244;SDS011;56357;52.304;4.870;2023-02-08T15:08:48;8.30;;;2.58;;
69244;SDS011;56357;52.304;4.870;2023-02-08T15:11:23;8.35;;;3.28;;
69244;SDS011;56357;52.304;4.870;2023-02-08T15:13:53;5.57;;;2.50;;
69244;SDS011;56357;52.304;4.870;2023-02-08T15:16:21;7.45;;;2.75;;
69244;SDS011;56357;52.304;4.870;2023-02-08T15:18:54;9.40;;;3.10;;
69244;SDS011;56357;52.304;4.870;2023-02-08T15:21:30;9.05;;;3.30;;
69244;SDS011;56357;52.304;4.870;2023-02-08T15:26:43;8.70;;;3.37;;
69244;SDS011;56357;52.304;4.870;2023-02-08T15:29:18;9.27;;;3.72;;
69244;SDS011;56357;52.304;4.870;2023-02-08T15:31:45;7.95;;;3.22;;
69244;SDS011;56357;52.304;4.870;2023-02-08T15:34:13;17.92;;;3.50;;
69244;SDS011;56357;52.304;4.870;2023-02-08T15:36:39;7.32;;;3.20;;
69244;SDS011;56357;52.304;4.870;2023-02-08T15:39:57;7.80;;;3.07;;
69244;SDS011;56357;52.304;4.870;2023-02-08T15:42:03;8.38;;;3.50;;
69244;SDS011;56357;52.304;4.870;2023-02-08T15:44:32;9.05;;;3.65;;
69244;SDS011;56357;52.304;4.870;2023-02-08T15:47:03;7.75;;;3.92;;
69244;SDS011;56357;52.304;4.870;2023-02-08T15:49:32;8.65;;;3.92;;
69244;SDS011;56357;52.304;4.870;2023-02-08T15:52:02;9.03;;;3.37;;
69244;SDS011;56357;52.304;4.870;2023-02-08T15:54:29;9.68;;;3.90;;
69244;SDS011;56357;52.304;4.870;2023-02-08T15:56:58;9.90;;;3.97;;
69244;SDS011;56357;52.304;4.870;2023-02-08T15:59:26;11.38;;;4.30;;
69244;SDS011;56357;52.304;4.870;2023-02-08T16:01:54;9.48;;;3.70;;
69244;SDS011;56357;52.304;4.870;2023-02-08T16:04:23;10.00;;;3.87;;
69244;SDS011;56357;52.304;4.870;2023-02-08T16:06:52;9.68;;;4.13;;
69244;SDS011;56357;52.304;4.870;2023-02-08T16:09:21;9.73;;;3.80;;
69244;SDS011;56357;52.304;4.870;2023-02-08T16:11:52;9.98;;;4.00;;
69244;SDS011;56357;52.304;4.870;2023-02-08T16:14:23;12.45;;;4.47;;
69244;SDS011;56357;52.304;4.870;2023-02-08T16:16:52;10.13;;;3.97;;
69244;SDS011;56357;52.304;4.870;2023-02-08T16:19:28;10.05;;;3.92;;
69244;SDS011;56357;52.304;4.870;2023-02-08T16:22:13;8.15;;;3.90;;
69244;SDS011;56357;52.304;4.870;2023-02-08T16:24:46;8.48;;;3.47;;
69244;SDS011;56357;52.304;4.870;2023-02-08T16:29:51;9.70;;;4.33;;
69244;SDS011;56357;52.304;4.870;2023-02-08T16:32:19;12.05;;;4.88;;
69244;SDS011;56357;52.304;4.870;2023-02-08T16:34:53;9.45;;;4.57;;
69244;SDS011;56357;52.304;4.870;2023-02-08T16:37:27;9.93;;;4.28;;
69244;SDS011;56357;52.304;4.870;2023-02-08T16:39:57;10.75;;;4.13;;
69244;SDS011;56357;52.304;4.870;2023-02-08T16:47:44;7.45;;;3.65;;
69244;SDS011;56357;52.304;4.870;2023-02-08T16:50:13;10.82;;;3.83;;
69244;SDS011;56357;52.304;4.870;2023-02-08T16:52:46;9.55;;;3.45;;
69244;SDS011;56357;52.304;4.870;2023-02-08T16:55:20;8.07;;;3.93;;
69244;SDS011;56357;52.304;4.870;2023-02-08T16:57:54;12.30;;;4.15;;
69244;SDS011;56357;52.304;4.870;2023-02-08T17:00:23;10.57;;;4.38;;
69244;SDS011;56357;52.304;4.870;2023-02-08T17:02:52;9.20;;;3.53;;
69244;SDS011;56357;52.304;4.870;2023-02-08T17:05:20;9.02;;;3.97;;
69244;SDS011;56357;52.304;4.870;2023-02-08T17:07:48;10.77;;;4.23;;
69244;SDS011;56357;52.304;4.870;2023-02-08T17:12:47;9.93;;;3.90;;
69244;SDS011;56357;52.304;4.870;2023-02-08T17:15:13;8.93;;;3.95;;
69244;SDS011;56357;52.304;4.870;2023-02-08T17:17:40;8.52;;;3.35;;
69244;SDS011;56357;52.304;4.870;2023-02-08T17:20:23;8.20;;;3.30;;
69244;SDS011;56357;52.304;4.870;2023-02-08T17:22:52;9.88;;;3.38;;
69244;SDS011;56357;52.304;4.870;2023-02-08T17:25:21;8.02;;;3.22;;
69244;SDS011;56357;52.304;4.870;2023-02-08T17:27:49;7.45;;;3.03;;
69244;SDS011;56357;52.304;4.870;2023-02-08T17:30:23;7.95;;;3.40;;
69244;SDS011;56357;52.304;4.870;2023-02-08T17:33:00;7.73;;;3.50;;
69244;SDS011;56357;52.304;4.870;2023-02-08T17:35:28;8.77;;;3.58;;